Time;durP1;ratioP1;P1;durP2;ratioP2;P2;SDS_P1;SDS_P2;PMS_P1;PMS_P2;Temp;Humidity;BMP_temperature;BMP_pressure;BME280_temperature;BME280_humidity;BME280_pressure;Samples;Min_cycle;Max_cycle;Signal;HPM_P1;HPM_P2
2023/06/11 00:01:17;;;;;;;1.70;1.60;;;;;;;;;;5062558;28;20076;-62
2023/06/11 00:03:46;;;;;;;4.32;2.03;;;;;;;;;;5063097;28;20076;-63
2023/06/11 00:06:17;;;;;;;1.55;1.45;;;;;;;;;;5045469;28;20403;-62
2023/06/11 00:08:46;;;;;;;1.65;1.52;;;;;;;;;;5062503;28;20602;-62
2023/06/11 00:11:12;;;;;;;2.05;1.60;;;;;;;;;;5063258;28;20040;-62
2023/06/11 00:13:38;;;;;;;1.50;1.40;;;;;;;;;;5062618;28;20542;-62
2023/06/11 00:16:05;;;;;;;1.20;1.10;;;;;;;;;;5062989;28;20051;-62
2023/06/11 00:18:31;;;;;;;1.20;1.10;;;;;;;;;;5066806;28;20102;-62
2023/06/11 00:20:58;;;;;;;1.50;1.40;;;;;;;;;;5067064;28;20434;-62
2023/06/11 00:23:24;;;;;;;1.40;1.30;;;;;;;;;;5066379;28;20516;-62
2023/06/11 00:25:52;;;;;;;1.13;1.02;;;;;;;;;;5066549;28;20080;-62
2023/06/11 00:28:18;;;;;;;1.13;1.02;;;;;;;;;;5066579;28;20129;-62
2023/06/11 00:30:44;;;;;;;1.15;1.15;;;;;;;;;;5066872;28;20044;-62
2023/06/11 00:33:10;;;;;;;1.40;1.17;;;;;;;;;;5066774;28;20055;-62
2023/06/11 00:35:37;;;;;;;1.73;1.10;;;;;;;;;;5066565;28;20040;-62
2023/06/11 00:38:03;;;;;;;1.27;1.17;;;;;;;;;;5065368;28;20032;-62
2023/06/11 00:40:30;;;;;;;1.35;1.17;;;;;;;;;;5066409;28;20056;-62
2023/06/11 00:42:56;;;;;;;0.88;0.88;;;;;;;;;;5066362;28;20198;-62
2023/06/11 00:45:24;;;;;;;1.92;1.63;;;;;;;;;;5065291;28;20115;-62
2023/06/11 00:47:50;;;;;;;1.40;1.30;;;;;;;;;;5065880;28;20047;-62
2023/06/11 00:50:16;;;;;;;2.47;1.73;;;;;;;;;;5066385;28;20133;-62
2023/06/11 00:52:42;;;;;;;1.17;1.08;;;;;;;;;;5066120;28;20174;-62
2023/06/11 00:55:09;;;;;;;1.42;1.17;;;;;;;;;;5065616;28;20044;-62
2023/06/11 00:57:40;;;;;;;1.25;1.15;;;;;;;;;;5065224;28;20041;-62
2023/06/11 01:00:11;;;;;;;1.50;1.40;;;;;;;;;;5065714;28;20764;-62
2023/06/11 01:02:41;;;;;;;2.33;1.58;;;;;;;;;;5066260;28;20036;-62
2023/06/11 01:05:08;;;;;;;1.25;1.20;;;;;;;;;;5065053;28;20105;-62
2023/06/11 01:07:35;;;;;;;0.93;0.93;;;;;;;;;;5065965;28;20412;-62
2023/06/11 01:10:02;;;;;;;1.10;1.00;;;;;;;;;;5064483;28;20586;-62
2023/06/11 01:12:28;;;;;;;1.10;1.00;;;;;;;;;;5063569;28;20044;-62
2023/06/11 01:14:54;;;;;;;1.30;1.20;;;;;;;;;;5064234;28;20045;-62
2023/06/11 01:17:23;;;;;;;1.45;1.35;;;;;;;;;;5064613;28;20037;-62
2023/06/11 01:19:59;;;;;;;1.15;1.05;;;;;;;;;;5063715;28;20049;-62
2023/06/11 01:22:43;;;;;;;1.25;1.15;;;;;;;;;;5064393;28;20051;-62
2023/06/11 01:25:30;;;;;;;1.30;1.20;;;;;;;;;;5064287;28;20072;-62
2023/06/11 01:28:03;;;;;;;1.88;1.40;;;;;;;;;;5062935;28;20040;-62
2023/06/11 01:30:30;;;;;;;1.42;1.25;;;;;;;;;;5064214;28;20041;-62
2023/06/11 01:32:56;;;;;;;1.35;1.23;;;;;;;;;;5063306;28;20053;-62
2023/06/11 01:35:23;;;;;;;1.50;1.40;;;;;;;;;;5064169;28;20512;-62
2023/06/11 01:37:55;;;;;;;1.10;1.10;;;;;;;;;;5064231;28;20139;-62
2023/06/11 01:40:22;;;;;;;1.17;1.08;;;;;;;;;;5063847;28;20343;-62
2023/06/11 01:42:49;;;;;;;1.20;1.10;;;;;;;;;;5063823;28;20124;-62
2023/06/11 01:45:16;;;;;;;1.45;1.35;;;;;;;;;;5064491;28;20052;-62
2023/06/11 01:47:44;;;;;;;1.40;1.30;;;;;;;;;;5063751;28;20048;-62
2023/06/11 01:50:11;;;;;;;1.35;1.25;;;;;;;;;;5046172;28;20072;-62
2023/06/11 01:52:38;;;;;;;1.42;1.33;;;;;;;;;;5064624;28;20048;-62
2023/06/11 01:55:06;;;;;;;1.40;1.30;;;;;;;;;;5063123;28;20048;-62
2023/06/11 01:57:32;;;;;;;1.98;1.20;;;;;;;;;;5063983;28;20047;-62
2023/06/11 01:59:58;;;;;;;1.30;1.20;;;;;;;;;;5063667;28;20044;-62
2023/06/11 02:02:24;;;;;;;1.10;0.88;;;;;;;;;;5063105;28;20055;-62
2023/06/11 02:04:50;;;;;;;1.13;1.10;;;;;;;;;;5063639;28;20044;-62
2023/06/11 02:07:16;;;;;;;1.40;1.23;;;;;;;;;;5063593;28;20090;-62
2023/06/11 02:09:42;;;;;;;0.82;0.82;;;;;;;;;;5026641;28;1061072;-62
2023/06/11 02:12:08;;;;;;;2.30;0.88;;;;;;;;;;5064764;28;20049;-62
2023/06/11 02:14:35;;;;;;;0.85;0.85;;;;;;;;;;5064910;28;20151;-62
2023/06/11 02:17:01;;;;;;;1.15;0.80;;;;;;;;;;5063530;28;20056;-62
2023/06/11 02:19:27;;;;;;;0.95;0.88;;;;;;;;;;5064582;28;20051;-62
2023/06/11 02:21:53;;;;;;;1.17;1.08;;;;;;;;;;5064286;28;20044;-62
2023/06/11 02:24:19;;;;;;;1.17;1.08;;;;;;;;;;5063927;28;20052;-62
2023/06/11 02:26:45;;;;;;;1.20;1.20;;;;;;;;;;5064945;28;20052;-62
2023/06/11 02:29:11;;;;;;;1.52;1.42;;;;;;;;;;5064128;28;20048;-62
2023/06/11 02:31:37;;;;;;;1.52;1.40;;;;;;;;;;5064398;28;20487;-62
2023/06/11 02:34:03;;;;;;;1.30;1.20;;;;;;;;;;5064340;28;20044;-62
2023/06/11 02:36:29;;;;;;;1.42;1.20;;;;;;;;;;5063468;28;20042;-62
2023/06/11 02:38:55;;;;;;;1.30;1.20;;;;;;;;;;5062934;28;20040;-62
2023/06/11 02:41:21;;;;;;;0.90;0.90;;;;;;;;;;5064101;28;20044;-61
2023/06/11 02:43:47;;;;;;;1.67;1.58;;;;;;;;;;5062946;28;20123;-62
2023/06/11 02:46:13;;;;;;;1.15;1.08;;;;;;;;;;5064331;28;20048;-62
2023/06/11 02:48:39;;;;;;;1.50;1.40;;;;;;;;;;5064198;28;20048;-62
2023/06/11 02:51:05;;;;;;;1.48;1.38;;;;;;;;;;5062803;28;20064;-62
2023/06/11 02:53:31;;;;;;;1.38;1.27;;;;;;;;;;5063729;28;20048;-62
2023/06/11 02:55:57;;;;;;;1.58;1.48;;;;;;;;;;5063524;28;20045;-62
2023/06/11 02:58:23;;;;;;;1.55;1.45;;;;;;;;;;5062674;28;20153;-62
2023/06/11 03:00:49;;;;;;;1.50;1.40;;;;;;;;;;5063545;28;20192;-62
2023/06/11 03:03:15;;;;;;;1.65;1.55;;;;;;;;;;5064169;28;20041;-62
2023/06/11 03:05:41;;;;;;;1.45;1.35;;;;;;;;;;5063679;28;20086;-62
2023/06/11 03:08:07;;;;;;;1.50;1.40;;;;;;;;;;5063521;28;20036;-62
2023/06/11 03:10:33;;;;;;;1.23;1.13;;;;;;;;;;5063464;28;20064;-62
2023/06/11 03:12:59;;;;;;;1.20;1.10;;;;;;;;;;5062693;28;20041;-62
2023/06/11 03:15:25;;;;;;;1.45;1.35;;;;;;;;;;5063333;28;20523;-62
2023/06/11 03:17:51;;;;;;;1.67;1.15;;;;;;;;;;5063058;28;20072;-62
2023/06/11 03:20:17;;;;;;;1.50;1.40;;;;;;;;;;5062628;28;20128;-62
2023/06/11 03:22:43;;;;;;;1.63;1.13;;;;;;;;;;5063943;28;20070;-62
2023/06/11 03:25:09;;;;;;;1.48;1.38;;;;;;;;;;5063056;28;20067;-62
2023/06/11 03:27:35;;;;;;;1.60;1.50;;;;;;;;;;5062473;28;20044;-62
2023/06/11 03:30:01;;;;;;;1.35;1.25;;;;;;;;;;5062867;28;20051;-62
2023/06/11 03:32:28;;;;;;;1.25;1.17;;;;;;;;;;5062349;28;20488;-62
2023/06/11 03:34:53;;;;;;;1.60;1.50;;;;;;;;;;5063197;28;20607;-62
2023/06/11 03:37:20;;;;;;;1.40;1.33;;;;;;;;;;5062983;28;20044;-62
2023/06/11 03:39:46;;;;;;;1.13;1.10;;;;;;;;;;5061856;28;20131;-62
2023/06/11 03:42:12;;;;;;;1.70;1.60;;;;;;;;;;5063586;28;20032;-61
2023/06/11 03:44:38;;;;;;;1.50;1.40;;;;;;;;;;5063185;28;20059;-61
2023/06/11 03:47:04;;;;;;;2.30;1.35;;;;;;;;;;5062020;28;20048;-62
2023/06/11 03:49:30;;;;;;;1.50;1.40;;;;;;;;;;5062862;28;20041;-62
2023/06/11 03:51:56;;;;;;;1.38;1.27;;;;;;;;;;5062876;28;20040;-62
2023/06/11 03:54:23;;;;;;;1.67;1.58;;;;;;;;;;5062287;28;20040;-62
2023/06/11 03:56:49;;;;;;;1.40;1.30;;;;;;;;;;5062361;28;20048;-62
2023/06/11 03:59:15;;;;;;;1.70;1.60;;;;;;;;;;5063107;28;20059;-62
2023/06/11 04:01:41;;;;;;;1.60;1.50;;;;;;;;;;5062652;28;20049;-62
2023/06/11 04:04:07;;;;;;;1.55;1.45;;;;;;;;;;5062582;28;20082;-62
2023/06/11 04:06:40;;;;;;;1.50;1.40;;;;;;;;;;5062882;28;20475;-62
2023/06/11 04:09:09;;;;;;;1.77;1.67;;;;;;;;;;5061799;28;20060;-61
2023/06/11 04:11:35;;;;;;;1.63;1.52;;;;;;;;;;5062452;28;20522;-62
2023/06/11 04:14:01;;;;;;;1.73;1.63;;;;;;;;;;5062554;28;20044;-62
2023/06/11 04:16:27;;;;;;;1.90;1.80;;;;;;;;;;5062061;28;20041;-62
2023/06/11 04:18:53;;;;;;;1.65;1.55;;;;;;;;;;5062811;28;20056;-62
2023/06/11 04:21:19;;;;;;;1.58;1.48;;;;;;;;;;5063056;28;20040;-62
2023/06/11 04:23:45;;;;;;;1.75;1.65;;;;;;;;;;5061693;28;20040;-62
2023/06/11 04:26:15;;;;;;;2.13;2.03;;;;;;;;;;5062811;28;20113;-62
2023/06/11 04:28:45;;;;;;;2.03;1.92;;;;;;;;;;5062436;28;20060;-61
2023/06/11 04:31:11;;;;;;;2.70;2.50;;;;;;;;;;5044903;28;20059;-62
2023/06/11 04:33:40;;;;;;;2.15;2.00;;;;;;;;;;5062319;28;20503;-62
2023/06/11 04:36:07;;;;;;;2.45;2.25;;;;;;;;;;5061537;28;20048;-62
2023/06/11 04:38:37;;;;;;;2.55;2.42;;;;;;;;;;5062321;28;20110;-62
2023/06/11 04:41:05;;;;;;;2.80;2.60;;;;;;;;;;5062343;28;20040;-62
2023/06/11 04:43:33;;;;;;;3.00;2.80;;;;;;;;;;5061809;28;20051;-62
2023/06/11 04:45:59;;;;;;;2.90;2.70;;;;;;;;;;5062269;28;20049;-62
2023/06/11 04:48:27;;;;;;;3.22;2.92;;;;;;;;;;5062625;28;20424;-62
2023/06/11 04:50:53;;;;;;;3.42;3.22;;;;;;;;;;5061465;28;20503;-62
2023/06/11 04:53:24;;;;;;;2.85;2.65;;;;;;;;;;5062333;28;20119;-62
2023/06/11 04:55:57;;;;;;;4.90;3.92;;;;;;;;;;5044467;28;20048;-62
2023/06/11 04:58:24;;;;;;;4.80;4.38;;;;;;;;;;5061611;28;20053;-62
2023/06/11 05:00:50;;;;;;;4.30;4.00;;;;;;;;;;5062167;28;20052;-61
2023/06/11 05:03:16;;;;;;;3.72;3.42;;;;;;;;;;5065480;28;20036;-61
2023/06/11 05:05:49;;;;;;;3.90;3.60;;;;;;;;;;5065794;28;20036;-62
2023/06/11 05:08:18;;;;;;;4.57;3.72;;;;;;;;;;5066042;28;20053;-62
2023/06/11 05:10:45;;;;;;;3.38;3.17;;;;;;;;;;5066403;28;20053;-62
2023/06/11 05:13:11;;;;;;;3.83;3.53;;;;;;;;;;5066208;28;20074;-62
2023/06/11 05:15:37;;;;;;;3.90;3.60;;;;;;;;;;5047457;28;20055;-62
2023/06/11 05:18:03;;;;;;;3.50;3.30;;;;;;;;;;5064764;28;20044;-62
2023/06/11 05:20:29;;;;;;;4.00;3.70;;;;;;;;;;5065595;28;20047;-62
2023/06/11 05:22:59;;;;;;;3.83;3.63;;;;;;;;;;5065352;28;20044;-62
2023/06/11 05:25:28;;;;;;;3.78;3.50;;;;;;;;;;5064954;28;20496;-62
2023/06/11 05:27:57;;;;;;;3.00;2.80;;;;;;;;;;5065550;28;20685;-62
2023/06/11 05:30:25;;;;;;;3.85;3.65;;;;;;;;;;5065472;28;20044;-62
2023/06/11 05:32:54;;;;;;;2.97;2.78;;;;;;;;;;5064504;28;20063;-62
2023/06/11 05:35:20;;;;;;;3.25;2.95;;;;;;;;;;5065338;28;20166;-62
2023/06/11 05:37:47;;;;;;;3.88;3.47;;;;;;;;;;5065149;28;20112;-61
2023/06/11 05:40:13;;;;;;;3.72;3.42;;;;;;;;;;5047197;28;20057;-61
2023/06/11 05:42:39;;;;;;;4.95;4.45;;;;;;;;;;5065184;28;20515;-62
2023/06/11 05:45:06;;;;;;;3.50;3.20;;;;;;;;;;5065009;28;20578;-62
2023/06/11 05:47:35;;;;;;;3.88;3.58;;;;;;;;;;5046693;28;20127;-62
2023/06/11 05:50:01;;;;;;;3.97;3.67;;;;;;;;;;5065016;28;20403;-62
2023/06/11 05:52:27;;;;;;;4.03;3.72;;;;;;;;;;5065071;28;20047;-62
2023/06/11 05:54:53;;;;;;;4.35;4.05;;;;;;;;;;5064011;28;20043;-62
2023/06/11 05:57:19;;;;;;;4.93;4.45;;;;;;;;;;5064761;28;20067;-62
2023/06/11 05:59:45;;;;;;;5.43;4.05;;;;;;;;;;5046899;28;20492;-62
2023/06/11 06:02:11;;;;;;;4.13;3.78;;;;;;;;;;5064668;28;20515;-62
2023/06/11 06:04:37;;;;;;;4.72;4.32;;;;;;;;;;5064658;28;20041;-61
2023/06/11 06:07:03;;;;;;;4.93;4.53;;;;;;;;;;5063810;28;20079;-61
2023/06/11 06:09:30;;;;;;;4.65;4.25;;;;;;;;;;5064501;28;20431;-61
2023/06/11 06:11:56;;;;;;;4.05;3.75;;;;;;;;;;5064301;28;20060;-61
2023/06/11 06:14:22;;;;;;;3.83;3.53;;;;;;;;;;5062646;28;20883;-62
2023/06/11 06:16:48;;;;;;;4.05;3.75;;;;;;;;;;5064221;28;20744;-61
2023/06/11 06:19:14;;;;;;;4.07;3.78;;;;;;;;;;5064935;28;20047;-62
2023/06/11 06:21:40;;;;;;;4.18;3.80;;;;;;;;;;5063851;28;20045;-62
2023/06/11 06:24:06;;;;;;;4.90;3.88;;;;;;;;;;5063979;28;20036;-61
2023/06/11 06:26:32;;;;;;;5.00;4.60;;;;;;;;;;5064482;28;20036;-61
2023/06/11 06:28:58;;;;;;;6.57;5.93;;;;;;;;;;5063520;28;20115;-62
2023/06/11 06:31:25;;;;;;;5.25;4.85;;;;;;;;;;5064278;28;20059;-62
2023/06/11 06:33:51;;;;;;;4.50;4.13;;;;;;;;;;5064296;28;20048;-62
2023/06/11 06:36:19;;;;;;;4.43;4.03;;;;;;;;;;5063629;28;20047;-62
2023/06/11 06:38:46;;;;;;;4.53;4.22;;;;;;;;;;5063912;28;20567;-62
2023/06/11 06:41:12;;;;;;;5.10;4.70;;;;;;;;;;5064793;28;20158;-62
2023/06/11 06:43:38;;;;;;;5.95;5.10;;;;;;;;;;5063058;28;20403;-62
2023/06/11 06:46:04;;;;;;;6.00;5.43;;;;;;;;;;5063770;28;20055;-62
2023/06/11 06:48:30;;;;;;;5.63;5.07;;;;;;;;;;5064120;28;20036;-62
2023/06/11 06:50:56;;;;;;;14.82;4.70;;;;;;;;;;5062808;28;20047;-62
2023/06/11 06:53:22;;;;;;;4.85;4.45;;;;;;;;;;5063698;28;20388;-62
2023/06/11 06:55:48;;;;;;;4.20;3.90;;;;;;;;;;5063840;28;20115;-62
2023/06/11 06:58:14;;;;;;;4.65;4.35;;;;;;;;;;5063361;28;20463;-62
2023/06/11 07:00:40;;;;;;;4.75;4.35;;;;;;;;;;5064291;28;20494;-62
2023/06/11 07:03:07;;;;;;;4.32;3.92;;;;;;;;;;5063627;28;20048;-62
2023/06/11 07:05:33;;;;;;;3.50;3.30;;;;;;;;;;5063544;28;20095;-62
2023/06/11 07:07:59;;;;;;;3.70;3.45;;;;;;;;;;5063566;28;20041;-62
2023/06/11 07:10:25;;;;;;;5.60;4.20;;;;;;;;;;5062790;28;20579;-62
2023/06/11 07:12:51;;;;;;;5.55;5.15;;;;;;;;;;5062901;28;20105;-62
2023/06/11 07:15:17;;;;;;;4.90;4.50;;;;;;;;;;5063318;28;20040;-62
2023/06/11 07:17:43;;;;;;;5.85;5.22;;;;;;;;;;5063092;28;20071;-62
2023/06/11 07:20:09;;;;;;;7.15;5.88;;;;;;;;;;5062821;28;20048;-62
2023/06/11 07:22:35;;;;;;;5.55;5.10;;;;;;;;;;5063225;28;20245;-62
2023/06/11 07:25:01;;;;;;;5.47;4.97;;;;;;;;;;5061793;28;20127;-62
2023/06/11 07:27:28;;;;;;;6.03;5.47;;;;;;;;;;5063354;28;20120;-62
2023/06/11 07:29:54;;;;;;;5.35;4.85;;;;;;;;;;5062905;28;20090;-62
2023/06/11 07:32:20;;;;;;;5.95;5.32;;;;;;;;;;5062438;28;20044;-61
2023/06/11 07:34:46;;;;;;;7.97;5.93;;;;;;;;;;5062698;28;20055;-62
2023/06/11 07:37:12;;;;;;;6.68;6.07;;;;;;;;;;5063392;28;20043;-62
2023/06/11 07:39:38;;;;;;;6.05;5.53;;;;;;;;;;5062021;28;20404;-62
2023/06/11 07:42:05;;;;;;;4.85;4.45;;;;;;;;;;5062653;28;20041;-62
2023/06/11 07:44:31;;;;;;;4.85;4.45;;;;;;;;;;5063093;28;20396;-62
2023/06/11 07:46:57;;;;;;;5.05;4.65;;;;;;;;;;5061946;28;20051;-62
2023/06/11 07:49:23;;;;;;;5.90;5.30;;;;;;;;;;5062842;28;20040;-62
2023/06/11 07:51:49;;;;;;;6.40;5.18;;;;;;;;;;5062826;28;20542;-63
2023/06/11 07:54:15;;;;;;;5.85;5.22;;;;;;;;;;5062507;28;20048;-63
2023/06/11 07:56:41;;;;;;;4.90;4.50;;;;;;;;;;5063214;28;20045;-63
2023/06/11 07:59:07;;;;;;;7.15;5.80;;;;;;;;;;5062354;28;20094;-63
2023/06/11 08:01:33;;;;;;;5.57;4.95;;;;;;;;;;5062108;28;20048;-63
2023/06/11 08:03:59;;;;;;;7.60;5.40;;;;;;;;;;5062484;28;20037;-63
2023/06/11 08:06:26;;;;;;;7.50;5.43;;;;;;;;;;5062608;28;20676;-63
2023/06/11 08:08:52;;;;;;;6.78;6.22;;;;;;;;;;5043709;28;20467;-63
2023/06/11 08:11:18;;;;;;;5.95;5.45;;;;;;;;;;5063051;28;20052;-63
2023/06/11 08:13:44;;;;;;;5.10;4.72;;;;;;;;;;5062825;28;20059;-63
2023/06/11 08:16:10;;;;;;;9.18;6.03;;;;;;;;;;5063078;28;20412;-63
2023/06/11 08:18:36;;;;;;;5.32;4.82;;;;;;;;;;5062391;28;20048;-63
2023/06/11 08:21:04;;;;;;;5.05;4.57;;;;;;;;;;5061615;28;20458;-63
2023/06/11 08:23:30;;;;;;;6.13;5.63;;;;;;;;;;5062979;28;20048;-63
2023/06/11 08:25:58;;;;;;;6.22;5.68;;;;;;;;;;5062451;28;20040;-63
2023/06/11 08:28:25;;;;;;;5.47;5.07;;;;;;;;;;5062321;28;20059;-63
2023/06/11 08:30:51;;;;;;;5.25;4.78;;;;;;;;;;5062266;28;20040;-63
2023/06/11 08:33:17;;;;;;;5.47;5.00;;;;;;;;;;5063710;28;20036;-63
2023/06/11 08:35:43;;;;;;;4.45;4.15;;;;;;;;;;5063841;28;20582;-63
2023/06/11 08:38:11;;;;;;;6.27;5.77;;;;;;;;;;5066980;28;20080;-63
2023/06/11 08:40:41;;;;;;;5.75;5.32;;;;;;;;;;5067825;28;20548;-63
2023/06/11 08:43:10;;;;;;;5.10;4.60;;;;;;;;;;5066002;28;20047;-63
2023/06/11 08:45:36;;;;;;;4.75;4.45;;;;;;;;;;5066333;28;20079;-63
2023/06/11 08:48:03;;;;;;;5.35;4.88;;;;;;;;;;5066158;28;20044;-63
2023/06/11 08:50:33;;;;;;;5.55;5.15;;;;;;;;;;5065381;28;20267;-63
2023/06/11 08:53:01;;;;;;;4.78;4.38;;;;;;;;;;5065987;28;20040;-63
2023/06/11 08:55:28;;;;;;;4.93;4.60;;;;;;;;;;5066080;28;20484;-63
2023/06/11 08:57:54;;;;;;;5.32;5.00;;;;;;;;;;5065019;28;20044;-63
2023/06/11 09:00:21;;;;;;;4.50;4.20;;;;;;;;;;5065923;28;20504;-63
2023/06/11 09:02:47;;;;;;;5.47;5.07;;;;;;;;;;5065380;28;20662;-63
2023/06/11 09:05:13;;;;;;;4.38;4.07;;;;;;;;;;5065516;28;20051;-63
2023/06/11 09:07:48;;;;;;;5.30;4.85;;;;;;;;;;5065944;28;20084;-63
2023/06/11 09:10:15;;;;;;;6.18;5.60;;;;;;;;;;5065632;28;20064;-63
2023/06/11 09:12:41;;;;;;;4.82;4.53;;;;;;;;;;5066307;28;20410;-63
2023/06/11 09:15:07;;;;;;;4.93;4.55;;;;;;;;;;5065462;28;20037;-63
2023/06/11 09:17:37;;;;;;;4.78;4.43;;;;;;;;;;5064882;28;20048;-63
2023/06/11 09:20:16;;;;;;;5.22;4.82;;;;;;;;;;5065398;28;20047;-63
2023/06/11 09:22:43;;;;;;;5.45;4.70;;;;;;;;;;5065777;28;20048;-63
2023/06/11 09:25:10;;;;;;;4.15;3.85;;;;;;;;;;5064557;28;20048;-63
2023/06/11 09:27:37;;;;;;;4.30;4.00;;;;;;;;;;5065268;28;20119;-63
2023/06/11 09:30:07;;;;;;;4.25;3.95;;;;;;;;;;5065133;28;20044;-63
2023/06/11 09:32:37;;;;;;;4.38;4.05;;;;;;;;;;5064846;28;20089;-63
2023/06/11 09:35:05;;;;;;;5.60;5.10;;;;;;;;;;5065297;28;20052;-63
2023/06/11 09:37:32;;;;;;;4.28;3.97;;;;;;;;;;5065119;28;20249;-63
2023/06/11 09:39:58;;;;;;;4.65;4.25;;;;;;;;;;5063994;28;20842;-63
2023/06/11 09:42:26;;;;;;;4.75;4.20;;;;;;;;;;5065143;28;20037;-63
2023/06/11 09:44:52;;;;;;;5.63;5.07;;;;;;;;;;5064859;28;20044;-63
2023/06/11 09:47:18;;;;;;;6.45;5.82;;;;;;;;;;5064481;28;20041;-63
2023/06/11 09:49:45;;;;;;;5.45;4.95;;;;;;;;;;5065665;28;20051;-63
2023/06/11 09:52:12;;;;;;;4.82;4.43;;;;;;;;;;5064693;28;20128;-63
2023/06/11 09:54:39;;;;;;;5.05;4.70;;;;;;;;;;5064702;28;20044;-63
2023/06/11 09:57:06;;;;;;;3.70;3.50;;;;;;;;;;5064693;28;20075;-63
2023/06/11 09:59:33;;;;;;;5.25;4.72;;;;;;;;;;5063742;28;20499;-63
2023/06/11 10:01:59;;;;;;;5.50;5.10;;;;;;;;;;5064816;28;20295;-63
2023/06/11 10:04:25;;;;;;;4.65;4.35;;;;;;;;;;5064957;28;20045;-63
2023/06/11 10:06:51;;;;;;;4.57;4.28;;;;;;;;;;5062986;28;20400;-63
2023/06/11 10:09:17;;;;;;;4.38;3.97;;;;;;;;;;5064473;28;20056;-63
2023/06/11 10:11:44;;;;;;;4.13;3.83;;;;;;;;;;5065054;28;20043;-63
2023/06/11 10:14:14;;;;;;;5.22;4.78;;;;;;;;;;5063970;28;20086;-63
2023/06/11 10:16:40;;;;;;;4.63;4.22;;;;;;;;;;5064980;28;20123;-63
2023/06/11 10:19:07;;;;;;;4.43;4.13;;;;;;;;;;5064287;28;20499;-62
2023/06/11 10:21:44;;;;;;;5.38;4.60;;;;;;;;;;5063965;28;20127;-62
2023/06/11 10:24:26;;;;;;;4.13;3.83;;;;;;;;;;5046507;28;20060;-63
2023/06/11 10:27:10;;;;;;;4.80;4.50;;;;;;;;;;5064226;28;20037;-63
2023/06/11 10:29:40;;;;;;;4.13;3.83;;;;;;;;;;5063904;28;20044;-63
2023/06/11 10:32:15;;;;;;;4.95;4.55;;;;;;;;;;5064194;28;20056;-63
2023/06/11 10:34:42;;;;;;;4.45;4.15;;;;;;;;;;5063935;28;20524;-63
2023/06/11 10:37:10;;;;;;;3.85;3.65;;;;;;;;;;5064599;28;20041;-63
2023/06/11 10:39:36;;;;;;;3.65;3.40;;;;;;;;;;5064408;28;20040;-63
2023/06/11 10:42:03;;;;;;;4.93;4.60;;;;;;;;;;5063653;28;20064;-63
2023/06/11 10:44:29;;;;;;;4.13;3.83;;;;;;;;;;5064196;28;20045;-63
2023/06/11 10:46:56;;;;;;;3.88;3.55;;;;;;;;;;5063849;28;20040;-63
2023/06/11 10:49:23;;;;;;;5.30;4.80;;;;;;;;;;5063600;28;20044;-63
2023/06/11 10:51:50;;;;;;;4.90;4.50;;;;;;;;;;5063949;28;20097;-63
2023/06/11 10:54:26;;;;;;;4.47;4.18;;;;;;;;;;5064079;28;20044;-63
2023/06/11 10:56:52;;;;;;;4.50;4.13;;;;;;;;;;5062712;28;20037;-63
2023/06/11 10:59:18;;;;;;;4.57;4.22;;;;;;;;;;5063454;28;20036;-63
2023/06/11 11:01:44;;;;;;;3.88;3.67;;;;;;;;;;5064738;28;20043;-63
2023/06/11 11:04:10;;;;;;;3.38;3.17;;;;;;;;;;5063385;28;20036;-63
2023/06/11 11:06:38;;;;;;;4.22;3.92;;;;;;;;;;5063799;28;20086;-63
2023/06/11 11:09:04;;;;;;;4.45;4.15;;;;;;;;;;5063161;28;20473;-63
2023/06/11 11:11:30;;;;;;;4.38;3.78;;;;;;;;;;5063222;28;20445;-63
2023/06/11 11:13:59;;;;;;;3.15;2.90;;;;;;;;;;5063348;28;20128;-63
2023/06/11 11:16:25;;;;;;;4.22;3.80;;;;;;;;;;5063249;28;20109;-63
2023/06/11 11:18:52;;;;;;;4.22;3.95;;;;;;;;;;5062708;28;20102;-63
2023/06/11 11:21:18;;;;;;;4.10;3.80;;;;;;;;;;5063577;28;20093;-63
2023/06/11 11:23:48;;;;;;;4.03;3.72;;;;;;;;;;5063158;28;20098;-63
2023/06/11 11:26:15;;;;;;;3.70;3.40;;;;;;;;;;5064004;28;20114;-63
2023/06/11 11:28:41;;;;;;;3.85;3.55;;;;;;;;;;5063983;28;20063;-63
2023/06/11 11:31:07;;;;;;;2.90;2.70;;;;;;;;;;5062658;28;20068;-63
2023/06/11 11:33:36;;;;;;;3.38;3.08;;;;;;;;;;5063572;28;20296;-63
2023/06/11 11:36:04;;;;;;;3.20;3.00;;;;;;;;;;5063335;28;20056;-63
2023/06/11 11:38:37;;;;;;;3.35;3.00;;;;;;;;;;5062580;28;20115;-63
2023/06/11 11:41:03;;;;;;;3.03;2.83;;;;;;;;;;5063605;28;20519;-63
2023/06/11 11:43:36;;;;;;;3.78;3.50;;;;;;;;;;5045009;28;20123;-63
2023/06/11 11:46:02;;;;;;;3.50;3.17;;;;;;;;;;5062437;28;20047;-63
2023/06/11 11:48:32;;;;;;;3.67;3.42;;;;;;;;;;5063238;28;20040;-63
2023/06/11 11:51:06;;;;;;;4.22;3.33;;;;;;;;;;5063020;28;20075;-63
2023/06/11 11:53:32;;;;;;;4.05;3.75;;;;;;;;;;5062458;28;20078;-63
2023/06/11 11:55:58;;;;;;;4.93;3.58;;;;;;;;;;5062902;28;20043;-63
2023/06/11 11:58:24;;;;;;;3.47;3.28;;;;;;;;;;5062996;28;20207;-63
2023/06/11 12:00:53;;;;;;;3.45;3.22;;;;;;;;;;5062148;28;20059;-63
2023/06/11 12:03:20;;;;;;;4.15;3.85;;;;;;;;;;5062974;28;20381;-63
2023/06/11 12:06:02;;;;;;;3.53;3.28;;;;;;;;;;5062180;28;20098;-63
2023/06/11 12:08:30;;;;;;;3.20;3.00;;;;;;;;;;5062637;28;20064;-63
2023/06/11 12:10:57;;;;;;;3.72;3.42;;;;;;;;;;5045970;28;20067;-63
2023/06/11 12:13:23;;;;;;;3.70;3.40;;;;;;;;;;5066386;28;20051;-63
2023/06/11 12:15:49;;;;;;;3.22;3.03;;;;;;;;;;5066385;28;20408;-63
2023/06/11 12:18:15;;;;;;;3.70;3.50;;;;;;;;;;5067188;28;20510;-63
2023/06/11 12:20:41;;;;;;;4.20;3.72;;;;;;;;;;5066658;28;20049;-63
2023/06/11 12:23:07;;;;;;;3.67;3.38;;;;;;;;;;5066770;28;20056;-63
2023/06/11 12:25:34;;;;;;;3.42;3.20;;;;;;;;;;5066672;28;20122;-63
2023/06/11 12:28:00;;;;;;;3.92;3.58;;;;;;;;;;5065539;28;20044;-64
2023/06/11 12:30:27;;;;;;;3.78;3.47;;;;;;;;;;5066561;28;20086;-63
2023/06/11 12:32:53;;;;;;;3.30;3.10;;;;;;;;;;5066663;28;20484;-63
2023/06/11 12:35:19;;;;;;;3.13;2.92;;;;;;;;;;5066326;28;20040;-63
2023/06/11 12:37:45;;;;;;;4.07;3.15;;;;;;;;;;5066362;28;20119;-63
2023/06/11 12:40:15;;;;;;;3.80;3.50;;;;;;;;;;5067058;28;20041;-63
2023/06/11 12:42:41;;;;;;;3.78;3.47;;;;;;;;;;5066456;28;20076;-63
2023/06/11 12:45:07;;;;;;;3.83;3.55;;;;;;;;;;5066142;28;20499;-63
2023/06/11 12:47:33;;;;;;;4.53;4.07;;;;;;;;;;5066055;28;20048;-63
2023/06/11 12:50:00;;;;;;;4.85;4.40;;;;;;;;;;5065199;28;20331;-63
2023/06/11 12:52:26;;;;;;;4.10;3.70;;;;;;;;;;5065903;28;20036;-63
2023/06/11 12:54:53;;;;;;;3.90;3.60;;;;;;;;;;5066193;28;20114;-63
2023/06/11 12:57:19;;;;;;;3.50;3.30;;;;;;;;;;5065636;28;20063;-63
2023/06/11 12:59:45;;;;;;;4.18;3.40;;;;;;;;;;5066241;28;20068;-63
2023/06/11 13:02:11;;;;;;;5.80;3.80;;;;;;;;;;5065741;28;20048;-64
2023/06/11 13:04:37;;;;;;;3.70;3.40;;;;;;;;;;5065649;28;20044;-64
2023/06/11 13:07:04;;;;;;;3.90;3.60;;;;;;;;;;5065672;28;20048;-63
2023/06/11 13:09:30;;;;;;;4.03;3.65;;;;;;;;;;5065102;28;20400;-63
2023/06/11 13:11:56;;;;;;;4.10;3.80;;;;;;;;;;5065588;28;20059;-63
2023/06/11 13:14:22;;;;;;;3.63;3.33;;;;;;;;;;5065956;28;20033;-63
2023/06/11 13:16:51;;;;;;;3.75;3.45;;;;;;;;;;5065031;28;20041;-64
2023/06/11 13:19:17;;;;;;;3.85;3.55;;;;;;;;;;5065675;28;20478;-64
2023/06/11 13:21:43;;;;;;;4.07;3.15;;;;;;;;;;5065920;28;20715;-64
2023/06/11 13:24:09;;;;;;;3.15;2.95;;;;;;;;;;5064118;28;20040;-63
2023/06/11 13:26:35;;;;;;;2.90;2.70;;;;;;;;;;5065436;28;20456;-63
2023/06/11 13:29:01;;;;;;;3.80;3.45;;;;;;;;;;5065367;28;20048;-63
2023/06/11 13:31:27;;;;;;;3.45;3.20;;;;;;;;;;5064940;28;20045;-63
2023/06/11 13:33:54;;;;;;;3.30;3.10;;;;;;;;;;5064997;28;20070;-61
2023/06/11 13:36:20;;;;;;;4.70;3.67;;;;;;;;;;5065414;28;20433;-61
2023/06/11 13:38:46;;;;;;;3.47;3.22;;;;;;;;;;5064537;28;20048;-61
2023/06/11 13:41:12;;;;;;;4.25;3.95;;;;;;;;;;5066036;28;20040;-61
2023/06/11 13:43:38;;;;;;;4.80;3.60;;;;;;;;;;5065429;28;20064;-61
2023/06/11 13:46:04;;;;;;;4.90;4.50;;;;;;;;;;5046596;28;20146;-61
2023/06/11 13:48:31;;;;;;;3.92;3.63;;;;;;;;;;5065065;28;20070;-61
2023/06/11 13:50:57;;;;;;;4.00;3.65;;;;;;;;;;5064938;28;20041;-61
2023/06/11 13:53:23;;;;;;;3.75;3.45;;;;;;;;;;5064401;28;20036;-61
2023/06/11 13:55:50;;;;;;;3.75;3.47;;;;;;;;;;5064753;28;20049;-61
2023/06/11 13:58:16;;;;;;;3.63;3.33;;;;;;;;;;5064396;28;20519;-61
2023/06/11 14:00:42;;;;;;;3.97;3.67;;;;;;;;;;5065542;28;20508;-61
2023/06/11 14:03:09;;;;;;;3.78;3.50;;;;;;;;;;5064335;28;20052;-61
2023/06/11 14:05:35;;;;;;;4.80;4.32;;;;;;;;;;5064031;28;20145;-61
2023/06/11 14:08:01;;;;;;;4.35;4.05;;;;;;;;;;5064508;28;20044;-61
2023/06/11 14:10:27;;;;;;;4.47;4.05;;;;;;;;;;5064396;28;20091;-61
2023/06/11 14:12:53;;;;;;;3.83;3.53;;;;;;;;;;5063671;28;20568;-62
2023/06/11 14:15:19;;;;;;;4.03;3.60;;;;;;;;;;5064522;28;20064;-61
2023/06/11 14:17:46;;;;;;;4.80;4.25;;;;;;;;;;5064378;28;20119;-61
2023/06/11 14:20:13;;;;;;;4.07;3.78;;;;;;;;;;5064106;28;20497;-61
2023/06/11 14:22:39;;;;;;;3.55;3.35;;;;;;;;;;5064504;28;20094;-61
2023/06/11 14:25:05;;;;;;;3.78;3.58;;;;;;;;;;5064282;28;20052;-61
2023/06/11 14:27:35;;;;;;;4.05;3.75;;;;;;;;;;5063800;28;20036;-61
2023/06/11 14:30:01;;;;;;;3.60;3.40;;;;;;;;;;5064322;28;20152;-61
2023/06/11 14:32:32;;;;;;;3.88;3.58;;;;;;;;;;5064592;28;20044;-61
2023/06/11 14:34:59;;;;;;;3.40;3.20;;;;;;;;;;5062740;28;20083;-61
2023/06/11 14:37:25;;;;;;;3.80;3.50;;;;;;;;;;5064241;28;20051;-61
2023/06/11 14:39:51;;;;;;;3.33;2.97;;;;;;;;;;5063680;28;20444;-61
2023/06/11 14:42:17;;;;;;;3.45;3.25;;;;;;;;;;5063210;28;20510;-61